createdAt,value
2019-06-09T00:01:30.091Z,0
2019-06-09T00:02:50.729Z,0
2019-06-09T00:04:09.864Z,0
2019-06-09T00:05:21.403Z,0
2019-06-09T00:06:37.175Z,0
2019-06-09T00:07:44.932Z,0
2019-06-09T00:08:57.121Z,0
2019-06-09T00:10:18.842Z,0
2019-06-09T00:11:30.765Z,0
2019-06-09T00:12:42.345Z,0
2019-06-09T00:13:50.378Z,0
2019-06-09T00:14:57.749Z,0
2019-06-09T00:16:18.118Z,0
2019-06-09T00:17:29.557Z,0
2019-06-09T00:18:37.547Z,0
2019-06-09T00:19:43.511Z,0
2019-06-09T00:20:53.000Z,0
2019-06-09T00:22:03.036Z,0
2019-06-09T00:23:21.411Z,0
2019-06-09T00:24:30.967Z,0
2019-06-09T00:25:37.805Z,0
2019-06-09T00:26:42.671Z,0
2019-06-09T00:27:47.890Z,0
2019-06-09T00:28:54.531Z,0
2019-06-09T00:30:10.268Z,0
2019-06-09T00:31:44.969Z,0
2019-06-09T00:32:54.758Z,0
2019-06-09T00:34:02.197Z,0
2019-06-09T00:35:20.978Z,0
2019-06-09T00:36:23.046Z,0
2019-06-09T00:37:27.263Z,0
2019-06-09T00:38:29.534Z,0
2019-06-09T00:39:31.631Z,0
2019-06-09T00:40:33.738Z,0
2019-06-09T00:41:36.830Z,0
2019-06-09T00:42:39.419Z,0
2019-06-09T00:43:42.192Z,0
2019-06-09T00:44:44.281Z,0
2019-06-09T00:45:49.166Z,0
2019-06-09T00:46:51.252Z,0
2019-06-09T00:47:53.619Z,0
2019-06-09T00:48:57.335Z,0
2019-06-09T00:49:59.495Z,0
2019-06-09T00:51:01.649Z,0
2019-06-09T00:52:04.475Z,0
2019-06-09T00:53:23.536Z,0
2019-06-09T00:54:28.223Z,0
2019-06-09T00:55:30.931Z,0
2019-06-09T00:56:33.003Z,0
2019-06-09T00:57:37.412Z,0
2019-06-09T00:58:40.066Z,0
2019-06-09T00:59:42.164Z,0
2019-06-09T01:00:44.300Z,0
2019-06-09T01:01:59.263Z,0
2019-06-09T01:03:24.595Z,0
2019-06-09T01:04:28.579Z,0
2019-06-09T01:05:30.872Z,0
2019-06-09T01:06:32.967Z,0
2019-06-09T01:07:37.157Z,0
2019-06-09T01:08:39.760Z,0
2019-06-09T01:09:42.237Z,0
2019-06-09T01:10:44.396Z,0
2019-06-09T01:11:49.120Z,0
2019-06-09T01:12:51.204Z,0
2019-06-09T01:13:53.296Z,0
2019-06-09T01:14:57.421Z,0
2019-06-09T01:15:59.702Z,0
2019-06-09T01:17:01.777Z,0
2019-06-09T01:18:03.913Z,0
2019-06-09T01:19:08.006Z,0
2019-06-09T01:20:17.558Z,0
2019-06-09T01:21:24.453Z,0
2019-06-09T01:22:29.188Z,0
2019-06-09T01:23:31.336Z,0
2019-06-09T01:24:33.397Z,0
2019-06-09T01:25:37.645Z,0
2019-06-09T01:26:40.144Z,0
2019-06-09T01:27:42.218Z,0
2019-06-09T01:28:44.675Z,0
2019-06-09T01:29:49.088Z,0
2019-06-09T01:30:51.513Z,0
2019-06-09T01:31:53.607Z,0
2019-06-09T01:32:57.641Z,0
2019-06-09T01:33:59.845Z,0
2019-06-09T01:35:01.936Z,0
2019-06-09T01:36:04.041Z,0
2019-06-09T01:37:08.037Z,0
2019-06-09T01:38:12.167Z,0
2019-06-09T01:39:21.016Z,0
2019-06-09T01:40:24.714Z,0
2019-06-09T01:41:29.942Z,0
2019-06-09T01:42:32.032Z,0
2019-06-09T01:43:34.545Z,0
2019-06-09T01:44:39.225Z,0
2019-06-09T01:45:41.357Z,0
2019-06-09T01:46:43.398Z,0
2019-06-09T01:47:47.177Z,0
2019-06-09T01:48:51.739Z,0
2019-06-09T01:49:53.862Z,0
2019-06-09T01:50:58.370Z,0
2019-06-09T01:52:00.453Z,0
2019-06-09T01:53:02.584Z,0
2019-06-09T01:54:04.684Z,0
2019-06-09T01:55:09.219Z,0
2019-06-09T01:56:12.945Z,0
2019-06-09T01:57:22.941Z,0
2019-06-09T01:58:25.087Z,0
2019-06-09T01:59:29.671Z,0
2019-06-09T02:00:31.816Z,0
2019-06-09T02:01:37.555Z,0
2019-06-09T02:02:47.699Z,0
2019-06-09T02:03:57.212Z,4
2019-06-09T02:04:59.328Z,4
2019-06-09T02:06:01.489Z,0
2019-06-09T02:07:03.518Z,0
2019-06-09T02:08:07.407Z,4
2019-06-09T02:09:09.649Z,4
2019-06-09T02:10:14.228Z,4
2019-06-09T02:11:24.585Z,4
2019-06-09T02:12:29.190Z,4
2019-06-09T02:13:31.352Z,8
2019-06-09T02:14:33.811Z,4
2019-06-09T02:15:37.757Z,8
2019-06-09T02:16:40.014Z,4
2019-06-09T02:17:42.148Z,8
2019-06-09T02:18:44.214Z,8
2019-06-09T02:19:47.961Z,8
2019-06-09T02:20:50.240Z,12
2019-06-09T02:21:52.327Z,12
2019-06-09T02:22:54.479Z,16
2019-06-09T02:23:59.241Z,16
2019-06-09T02:25:01.330Z,16
2019-06-09T02:26:03.715Z,20
2019-06-09T02:27:08.088Z,20
2019-06-09T02:28:10.346Z,24
2019-06-09T02:29:12.443Z,28
2019-06-09T02:30:16.360Z,28
2019-06-09T02:31:51.331Z,36
2019-06-09T02:33:08.045Z,40
2019-06-09T02:35:00.878Z,48
2019-06-09T02:36:13.615Z,56
2019-06-09T02:37:55.657Z,64
2019-06-09T02:39:01.685Z,68
2019-06-09T02:40:04.818Z,76
2019-06-09T02:41:07.190Z,80
2019-06-09T02:42:12.296Z,88
2019-06-09T02:43:16.918Z,96
2019-06-09T02:44:43.248Z,108
2019-06-09T02:45:45.659Z,116
2019-06-09T02:46:47.693Z,124
2019-06-09T02:47:52.877Z,136
2019-06-09T02:48:55.541Z,148
2019-06-09T02:49:57.582Z,156
2019-06-09T02:51:02.635Z,164
2019-06-09T02:52:05.861Z,180
2019-06-09T02:53:11.503Z,188
2019-06-09T02:54:13.914Z,204
2019-06-09T02:55:16.043Z,216
2019-06-09T02:56:44.616Z,236
2019-06-09T02:57:47.038Z,252
2019-06-09T02:58:51.738Z,264
2019-06-09T02:59:54.320Z,280
2019-06-09T03:00:56.853Z,300
2019-06-09T03:02:03.722Z,312
2019-06-09T03:03:25.087Z,336
2019-06-09T03:05:18.147Z,376
2019-06-09T03:06:45.762Z,396
2019-06-09T03:07:48.187Z,416
2019-06-09T03:08:54.311Z,432
2019-06-09T03:09:56.673Z,448
2019-06-09T03:11:02.140Z,464
2019-06-09T03:12:05.403Z,484
2019-06-09T03:13:07.547Z,500
2019-06-09T03:14:13.710Z,520
2019-06-09T03:15:16.142Z,544
2019-06-09T03:16:18.229Z,564
2019-06-09T03:17:46.717Z,592
2019-06-09T03:18:51.994Z,612
2019-06-09T03:19:58.507Z,628
2019-06-09T03:21:05.378Z,644
2019-06-09T03:22:08.431Z,660
2019-06-09T03:23:14.245Z,684
2019-06-09T03:24:16.336Z,700
2019-06-09T03:25:21.712Z,724
2019-06-09T03:26:45.574Z,744
2019-06-09T03:27:48.032Z,744
2019-06-09T03:28:54.198Z,752
2019-06-09T03:29:56.301Z,760
2019-06-09T03:31:13.967Z,780
2019-06-09T03:39:48.777Z,892
2019-06-09T03:40:54.834Z,908
2019-06-09T03:41:57.225Z,924
2019-06-09T03:43:02.817Z,932
2019-06-09T03:44:05.734Z,944
2019-06-09T03:45:08.053Z,956
2019-06-09T03:46:11.539Z,964
2019-06-09T03:47:14.120Z,972
2019-06-09T03:48:16.213Z,984
2019-06-09T03:49:22.650Z,996
2019-06-09T03:50:53.298Z,1008
2019-06-09T03:52:02.659Z,1012
2019-06-09T03:53:05.657Z,1012
2019-06-09T03:54:08.164Z,1000
2019-06-09T03:55:19.200Z,1016
2019-06-09T03:56:53.697Z,1068
2019-06-09T03:57:55.787Z,1100
2019-06-09T03:58:58.168Z,1120
2019-06-09T04:00:13.357Z,1116
2019-06-09T04:01:56.191Z,1152
2019-06-09T04:03:02.432Z,1192
2019-06-09T04:04:06.085Z,1216
2019-06-09T04:05:08.226Z,1224
2019-06-09T04:06:24.958Z,1236
2019-06-09T04:08:07.526Z,1252
2019-06-09T04:09:13.058Z,1264
2019-06-09T04:10:15.422Z,1288
2019-06-09T04:11:17.793Z,1296
2019-06-09T04:12:45.528Z,1312
2019-06-09T04:13:47.866Z,1328
2019-06-09T04:14:53.811Z,1340
2019-06-09T04:15:55.929Z,1360
2019-06-09T04:16:58.430Z,1376
2019-06-09T04:18:11.551Z,1392
2019-06-09T04:19:13.856Z,1408
2019-06-09T04:20:16.334Z,1428
2019-06-09T04:21:18.682Z,1444
2019-06-09T04:22:42.081Z,1468
2019-06-09T04:23:56.753Z,1500
2019-06-09T04:25:03.458Z,1536
2019-06-09T04:26:05.542Z,1568
2019-06-09T04:27:08.031Z,1604
2019-06-09T04:28:13.591Z,1636
2019-06-09T04:29:15.964Z,1664
2019-06-09T04:30:23.346Z,1676
2019-06-09T04:31:56.303Z,1664
2019-06-09T04:32:58.776Z,1640
2019-06-09T04:34:04.861Z,1604
2019-06-09T04:35:07.580Z,1576
2019-06-09T04:36:26.402Z,1564
2019-06-09T04:38:11.599Z,1556
2019-06-09T04:39:14.425Z,1564
2019-06-09T04:40:17.139Z,1572
2019-06-09T04:41:24.662Z,1576
2019-06-09T04:42:46.445Z,1564
2019-06-09T04:43:54.405Z,1564
2019-06-09T04:44:57.163Z,1544
2019-06-09T04:46:02.175Z,1536
2019-06-09T04:47:04.518Z,1536
2019-06-09T04:48:07.040Z,1548
2019-06-09T04:49:13.089Z,1584
2019-06-09T04:50:15.614Z,1604
2019-06-09T04:51:18.259Z,1636
2019-06-09T04:52:23.721Z,1664
2019-06-09T04:53:47.570Z,1724
2019-06-09T04:54:53.880Z,1728
2019-06-09T04:55:56.000Z,1760
2019-06-09T04:57:01.787Z,1788
2019-06-09T04:58:04.448Z,1804
2019-06-09T04:59:07.129Z,1816
2019-06-09T05:00:13.805Z,1844
2019-06-09T05:01:27.060Z,1872
2019-06-09T05:02:55.272Z,1888
2019-06-09T05:03:58.016Z,1896
2019-06-09T05:05:03.704Z,1916
2019-06-09T05:06:05.784Z,1928
2019-06-09T05:07:20.714Z,1944
2019-06-09T05:09:14.823Z,1960
2019-06-09T05:10:17.232Z,1952
2019-06-09T05:11:22.734Z,1940
2019-06-09T05:12:25.635Z,1924
2019-06-09T05:13:52.438Z,1928
2019-06-09T05:14:55.532Z,1928
2019-06-09T05:15:57.686Z,1936
2019-06-09T05:17:03.551Z,1944
2019-06-09T05:18:06.056Z,1948
2019-06-09T05:19:08.590Z,1952
2019-06-09T05:20:15.145Z,1968
2019-06-09T05:21:17.892Z,1992
2019-06-09T05:22:24.158Z,2000
2019-06-09T05:23:26.256Z,2004
2019-06-09T05:24:30.506Z,2004
2019-06-09T05:25:56.326Z,2000
2019-06-09T05:27:02.193Z,2000
2019-06-09T05:28:04.744Z,1992
2019-06-09T05:29:06.841Z,1984
2019-06-09T05:30:11.821Z,1984
2019-06-09T05:31:15.433Z,1976
2019-06-09T05:32:17.530Z,1984
2019-06-09T05:33:21.672Z,1988
2019-06-09T05:34:23.931Z,2000
2019-06-09T05:35:26.407Z,2012
2019-06-09T05:36:31.559Z,2036
2019-06-09T05:38:32.416Z,2080
2019-06-09T05:40:01.121Z,2084
2019-06-09T05:41:07.929Z,2088
2019-06-09T05:42:13.123Z,2104
2019-06-09T05:43:15.297Z,2112
2019-06-09T05:44:17.369Z,2128
2019-06-09T05:45:20.707Z,2140
2019-06-09T05:46:22.937Z,2144
2019-06-09T05:47:25.025Z,2152
2019-06-09T05:48:27.134Z,2156
2019-06-09T05:49:32.213Z,2168
2019-06-09T05:50:44.342Z,2184
2019-06-09T05:51:46.447Z,2208
2019-06-09T05:52:48.609Z,2236
2019-06-09T05:53:53.429Z,2272
2019-06-09T05:54:55.561Z,2308
2019-06-09T05:55:57.945Z,2340
2019-06-09T05:57:02.675Z,2380
2019-06-09T05:58:05.112Z,2428
2019-06-09T05:59:07.214Z,2480
2019-06-09T06:00:11.806Z,2528
2019-06-09T06:01:14.216Z,2572
2019-06-09T06:02:16.597Z,2588
2019-06-09T06:03:21.303Z,2592
2019-06-09T06:04:23.901Z,2596
2019-06-09T06:05:26.072Z,2596
2019-06-09T06:06:28.153Z,2572
2019-06-09T06:07:35.913Z,2528
2019-06-09T06:08:42.689Z,2492
2019-06-09T06:09:46.149Z,2464
2019-06-09T06:10:48.235Z,2432
2019-06-09T06:11:52.770Z,2376
2019-06-09T06:12:55.172Z,2324
2019-06-09T06:13:57.689Z,2328
2019-06-09T06:15:01.665Z,2356
2019-06-09T06:16:04.060Z,2388
2019-06-09T06:17:06.157Z,2404
2019-06-09T06:18:10.437Z,2440
2019-06-09T06:19:13.168Z,2468
2019-06-09T06:20:15.309Z,2476
2019-06-09T06:21:18.091Z,2468
2019-06-09T06:22:23.030Z,2480
2019-06-09T06:23:25.402Z,2488
2019-06-09T06:24:27.497Z,2496
2019-06-09T06:25:33.726Z,2492
2019-06-09T06:26:48.681Z,2560
2019-06-09T06:27:53.975Z,2588
2019-06-09T06:28:56.088Z,2608
2019-06-09T06:30:00.475Z,2640
2019-06-09T06:31:03.333Z,2672
2019-06-09T06:32:05.537Z,2708
2019-06-09T06:33:07.652Z,2756
2019-06-09T06:34:12.265Z,2808
2019-06-09T06:35:14.836Z,2868
2019-06-09T06:36:17.153Z,2924
2019-06-09T06:37:32.743Z,2960
2019-06-09T06:38:57.355Z,2984
2019-06-09T06:40:05.535Z,2992
2019-06-09T06:41:08.061Z,3012
2019-06-09T06:42:11.642Z,3044
2019-06-09T06:43:13.806Z,3084
2019-06-09T06:44:15.873Z,3120
2019-06-09T06:45:18.034Z,3148
2019-06-09T06:46:22.915Z,3172
2019-06-09T06:47:25.069Z,3236
2019-06-09T06:48:27.137Z,3308
2019-06-09T06:49:32.052Z,3360
2019-06-09T06:50:34.423Z,3336
2019-06-09T06:51:39.016Z,3320
2019-06-09T06:52:51.227Z,3304
2019-06-09T06:53:53.853Z,3276
2019-06-09T06:54:55.986Z,3260
2019-06-09T06:55:58.084Z,3296
2019-06-09T06:57:03.205Z,3292
2019-06-09T06:58:05.293Z,3320
2019-06-09T06:59:07.652Z,3472
2019-06-09T07:00:12.349Z,3628
2019-06-09T07:01:15.146Z,3672
2019-06-09T07:02:17.312Z,3688
2019-06-09T07:03:20.949Z,3720
2019-06-09T07:04:23.204Z,3684
2019-06-09T07:05:25.310Z,3728
2019-06-09T07:06:27.393Z,3708
2019-06-09T07:07:39.776Z,3688
2019-06-09T07:09:13.780Z,3648
2019-06-09T07:10:15.854Z,3688
2019-06-09T07:11:17.904Z,3704
2019-06-09T07:12:22.468Z,3756
2019-06-09T07:13:24.541Z,3784
2019-06-09T07:14:27.803Z,3784
2019-06-09T07:15:32.511Z,3888
2019-06-09T07:16:34.600Z,3876
2019-06-09T07:17:37.020Z,3860
2019-06-09T07:18:42.338Z,3868
2019-06-09T07:19:54.667Z,3888
2019-06-09T07:20:56.775Z,4024
2019-06-09T07:21:58.855Z,4200
2019-06-09T07:23:03.609Z,4316
2019-06-09T07:24:05.989Z,4468
2019-06-09T07:25:08.143Z,4708
2019-06-09T07:26:11.668Z,4772
2019-06-09T07:27:13.854Z,4932
2019-06-09T07:28:16.364Z,5024
2019-06-09T07:29:20.855Z,5124
2019-06-09T07:30:23.024Z,5132
2019-06-09T07:31:25.153Z,5108
2019-06-09T07:32:27.292Z,5016
2019-06-09T07:33:33.117Z,4924
2019-06-09T07:34:35.602Z,4900
2019-06-09T07:35:38.080Z,4892
2019-06-09T07:36:56.584Z,4860
2019-06-09T07:38:16.423Z,4744
2019-06-09T07:41:46.477Z,4520
2019-06-09T07:42:56.546Z,4536
2019-06-09T07:43:58.753Z,4428
2019-06-09T07:45:03.743Z,4196
2019-06-09T07:46:06.235Z,4124
2019-06-09T07:47:08.473Z,4180
2019-06-09T07:48:14.161Z,4160
2019-06-09T07:49:16.343Z,4208
2019-06-09T07:50:20.938Z,4232
2019-06-09T07:51:23.325Z,4204
2019-06-09T07:52:25.978Z,4188
2019-06-09T07:53:28.187Z,4148
2019-06-09T07:54:33.756Z,4104
2019-06-09T07:55:35.918Z,4124
2019-06-09T07:56:40.567Z,4160
2019-06-09T07:57:47.853Z,4200
2019-06-09T07:58:55.731Z,4320
2019-06-09T07:59:57.924Z,4404
2019-06-09T08:01:02.990Z,4416
2019-06-09T08:02:05.539Z,4536
2019-06-09T08:03:08.089Z,4652
2019-06-09T08:04:12.670Z,4732
2019-06-09T08:05:14.922Z,4860
2019-06-09T08:06:17.088Z,4864
2019-06-09T08:07:20.986Z,4956
2019-06-09T08:08:36.319Z,4976
2019-06-09T08:10:01.219Z,5204
2019-06-09T08:11:03.967Z,5348
2019-06-09T08:12:06.214Z,5564
2019-06-09T08:13:11.016Z,5744
2019-06-09T08:14:13.440Z,5816
2019-06-09T08:15:15.652Z,5820
2019-06-09T08:16:17.813Z,5620
2019-06-09T08:17:23.322Z,5600
2019-06-09T08:18:25.510Z,5588
2019-06-09T08:19:27.752Z,5512
2019-06-09T08:20:33.162Z,5352
2019-06-09T08:21:35.342Z,5328
2019-06-09T08:22:37.527Z,5500
2019-06-09T08:23:42.671Z,5708
2019-06-09T08:24:46.737Z,5296
2019-06-09T08:25:56.368Z,5336
2019-06-09T08:26:58.982Z,5392
2019-06-09T08:28:04.289Z,5204
2019-06-09T08:29:06.680Z,4960
2019-06-09T08:30:10.666Z,4784
2019-06-09T08:31:16.282Z,4820
2019-06-09T08:32:18.543Z,4904
2019-06-09T08:33:23.102Z,4920
2019-06-09T08:34:25.655Z,4888
2019-06-09T08:35:28.158Z,4716
2019-06-09T08:36:32.953Z,4628
2019-06-09T08:37:35.187Z,4540
2019-06-09T08:38:49.790Z,4476
2019-06-09T08:40:17.377Z,4496
2019-06-09T08:41:21.599Z,4616
2019-06-09T08:42:24.278Z,4788
2019-06-09T08:43:26.462Z,4932
2019-06-09T08:44:29.144Z,5248
2019-06-09T08:45:34.260Z,5488
2019-06-09T08:46:36.457Z,5420
2019-06-09T08:47:40.977Z,5024
2019-06-09T08:48:45.826Z,5016
2019-06-09T08:49:57.167Z,5304
2019-06-09T08:51:02.022Z,5660
2019-06-09T08:52:04.683Z,5956
2019-06-09T08:53:06.879Z,6016
2019-06-09T08:54:11.224Z,5576
2019-06-09T08:55:13.590Z,6380
2019-06-09T08:56:15.771Z,6412
2019-06-09T08:57:18.046Z,6260
2019-06-09T08:58:23.058Z,6548
2019-06-09T08:59:25.328Z,8076
2019-06-09T09:00:27.894Z,9096
2019-06-09T09:01:32.872Z,7628
2019-06-09T09:02:35.160Z,6216
2019-06-09T09:03:37.342Z,4676
2019-06-09T09:04:41.437Z,5732
2019-06-09T09:05:46.215Z,5952
2019-06-09T09:06:54.470Z,5608
2019-06-09T09:07:57.950Z,5852
2019-06-09T09:09:17.714Z,6296
2019-06-09T09:10:35.504Z,6348
2019-06-09T09:11:37.694Z,6616
2019-06-09T09:12:40.726Z,7216
2019-06-09T09:13:44.601Z,7012
2019-06-09T09:14:54.884Z,4964
2019-06-09T09:16:05.063Z,5332
2019-06-09T09:17:07.336Z,5264
2019-06-09T09:18:11.417Z,5384
2019-06-09T09:19:13.702Z,5664
2019-06-09T09:20:15.931Z,6528
2019-06-09T09:21:18.387Z,7500
2019-06-09T09:22:23.670Z,8336
2019-06-09T09:23:25.992Z,6548
2019-06-09T09:24:53.556Z,6772
2019-06-09T09:26:27.915Z,5976
2019-06-09T09:27:33.213Z,6104
2019-06-09T09:28:35.804Z,6340
2019-06-09T09:29:38.080Z,5596
2019-06-09T09:30:43.096Z,5372
2019-06-09T09:31:52.851Z,5580
2019-06-09T09:33:03.654Z,5856
2019-06-09T09:34:10.864Z,6084
2019-06-09T09:35:13.543Z,6572
2019-06-09T09:36:15.655Z,6904
2019-06-09T09:37:17.984Z,7960
2019-06-09T09:38:24.064Z,8648
2019-06-09T09:39:31.793Z,8860
2019-06-09T09:40:40.485Z,9620
2019-06-09T09:41:43.236Z,10872
2019-06-09T09:42:48.146Z,12472
2019-06-09T09:44:01.285Z,14920
2019-06-09T09:45:04.845Z,15976
2019-06-09T09:46:07.319Z,18816
2019-06-09T09:47:12.851Z,25472
2019-06-09T09:48:15.967Z,43552
2019-06-09T09:49:18.568Z,67520
2019-06-09T09:50:23.546Z,88480
2019-06-09T09:51:26.818Z,8768
2019-06-09T09:52:31.991Z,19392
2019-06-09T09:53:35.149Z,103008
2019-06-09T09:54:38.121Z,95808
2019-06-09T09:55:43.324Z,100608
2019-06-09T09:56:45.987Z,100480
2019-06-09T09:57:52.459Z,94176
2019-06-09T09:59:03.143Z,94368
2019-06-09T10:00:10.679Z,92416
2019-06-09T10:01:16.476Z,94784
2019-06-09T10:02:21.146Z,97664
2019-06-09T10:03:23.580Z,101024
2019-06-09T10:04:26.492Z,101248
2019-06-09T10:05:30.985Z,101696
2019-06-09T10:06:33.873Z,102208
2019-06-09T10:07:36.453Z,98176
2019-06-09T10:08:41.360Z,27904
2019-06-09T10:09:50.504Z,94016
2019-06-09T10:11:07.388Z,94912
2019-06-09T10:12:12.533Z,95584
2019-06-09T10:13:15.091Z,100384
2019-06-09T10:14:17.567Z,14668
2019-06-09T10:15:24.216Z,97536
2019-06-09T10:16:26.819Z,100192
2019-06-09T10:17:30.858Z,98400
2019-06-09T10:18:34.092Z,20032
2019-06-09T10:19:36.678Z,100832
2019-06-09T10:20:41.505Z,102784
2019-06-09T10:21:44.233Z,101824
2019-06-09T10:22:46.539Z,103712
2019-06-09T10:23:56.543Z,101536
2019-06-09T10:25:14.061Z,102496
2019-06-09T10:26:27.735Z,100928
2019-06-09T10:27:33.224Z,101344
2019-06-09T10:28:36.042Z,59840
2019-06-09T10:29:40.568Z,102336
2019-06-09T10:30:43.164Z,96672
2019-06-09T10:31:47.038Z,97536
2019-06-09T10:33:01.101Z,97600
2019-06-09T10:34:14.746Z,98880
2019-06-09T10:35:17.090Z,97472
2019-06-09T10:36:21.660Z,97920
2019-06-09T10:37:24.307Z,91680
2019-06-09T10:38:26.992Z,94272
2019-06-09T10:39:31.356Z,92992
2019-06-09T10:40:36.291Z,92320
2019-06-09T10:41:39.817Z,87712
2019-06-09T10:42:45.372Z,87008
2019-06-09T10:43:47.768Z,91520
2019-06-09T10:45:05.065Z,88896
2019-06-09T10:46:07.802Z,89184
2019-06-09T10:47:13.796Z,89920
2019-06-09T10:48:16.997Z,88096
2019-06-09T10:49:21.256Z,55328
2019-06-09T10:50:23.715Z,86528
2019-06-09T10:51:26.095Z,88032
2019-06-09T10:52:28.969Z,81056
2019-06-09T10:53:34.405Z,77376
2019-06-09T10:54:36.860Z,68928
2019-06-09T10:55:41.509Z,84192
2019-06-09T10:56:44.210Z,87776
2019-06-09T10:57:46.250Z,87136
2019-06-09T10:58:48.376Z,87840
2019-06-09T11:00:17.440Z,12316
2019-06-09T11:01:37.235Z,11448
2019-06-09T11:02:42.419Z,15220
2019-06-09T11:03:44.503Z,29504
2019-06-09T11:04:46.659Z,9816
2019-06-09T11:05:51.052Z,10936
2019-06-09T11:07:03.930Z,57312
2019-06-09T11:08:07.157Z,23168
2019-06-09T11:09:12.055Z,81984
2019-06-09T11:10:23.068Z,90080
2019-06-09T11:11:38.015Z,92384
2019-06-09T11:12:42.980Z,88064
2019-06-09T11:13:45.076Z,90752
2019-06-09T11:14:47.240Z,92448
2019-06-09T11:15:51.380Z,89728
2019-06-09T11:17:06.607Z,91200
2019-06-09T11:18:09.288Z,91424
2019-06-09T11:19:14.012Z,93888
2019-06-09T11:20:17.101Z,95328
2019-06-09T11:21:21.456Z,93344
2019-06-09T11:22:24.120Z,92160
2019-06-09T11:23:26.199Z,91296
2019-06-09T11:24:31.040Z,90784
2019-06-09T11:25:33.633Z,89888
2019-06-09T11:26:35.784Z,90656
2019-06-09T11:27:37.878Z,90688
2019-06-09T11:28:41.584Z,91488
2019-06-09T11:29:43.956Z,90912
2019-06-09T11:30:46.355Z,87968
2019-06-09T11:31:51.394Z,88160
2019-06-09T11:33:00.625Z,88160
2019-06-09T11:34:05.867Z,85824
2019-06-09T11:35:10.880Z,85600
2019-06-09T11:36:13.510Z,87264
2019-06-09T11:37:15.795Z,86080
2019-06-09T11:38:18.260Z,85056
2019-06-09T11:39:23.992Z,84288
2019-06-09T11:40:36.917Z,81440
2019-06-09T11:41:46.146Z,77440
2019-06-09T11:42:48.363Z,71552
2019-06-09T11:43:57.437Z,53984
2019-06-09T11:45:07.225Z,34784
2019-06-09T11:46:11.396Z,29312
2019-06-09T11:47:13.758Z,26752
2019-06-09T11:48:15.952Z,24928
2019-06-09T11:49:18.255Z,23456
2019-06-09T11:50:24.755Z,22400
2019-06-09T11:51:27.427Z,7096
2019-06-09T11:52:29.988Z,6864
2019-06-09T11:53:32.433Z,22688
2019-06-09T11:54:34.725Z,19584
2019-06-09T11:55:36.945Z,17300
2019-06-09T11:56:41.281Z,16624
2019-06-09T11:57:44.012Z,17376
2019-06-09T11:58:46.546Z,16348
2019-06-09T11:59:50.970Z,15612
2019-06-09T12:00:55.796Z,16468
2019-06-09T12:02:00.140Z,16052
2019-06-09T12:03:09.370Z,13364
2019-06-09T12:04:12.087Z,12564
2019-06-09T12:05:14.368Z,12440
2019-06-09T12:06:16.983Z,12524
2019-06-09T12:07:21.662Z,12812
2019-06-09T12:08:24.847Z,13724
2019-06-09T12:09:27.047Z,13188
2019-06-09T12:10:29.615Z,11076
2019-06-09T12:11:32.260Z,9260
2019-06-09T12:12:35.018Z,8452
2019-06-09T12:13:37.269Z,8040
2019-06-09T12:14:41.385Z,7568
2019-06-09T12:15:44.174Z,7424
2019-06-09T12:16:46.417Z,7388
2019-06-09T12:17:48.661Z,7296
2019-06-09T12:18:56.193Z,7392
2019-06-09T12:20:12.609Z,6668
2019-06-09T12:21:15.476Z,6144
2019-06-09T12:22:17.631Z,5508
2019-06-09T12:23:22.578Z,5940
2019-06-09T12:24:24.894Z,6268
2019-06-09T12:25:28.267Z,6700
2019-06-09T12:26:32.047Z,5856
2019-06-09T12:27:34.312Z,5664
2019-06-09T12:28:36.541Z,5752
2019-06-09T12:29:41.896Z,5728
2019-06-09T12:30:44.290Z,5344
2019-06-09T12:31:46.578Z,5352
2019-06-09T12:32:48.801Z,5532
2019-06-09T12:33:56.049Z,5796
2019-06-09T12:35:05.358Z,5968
2019-06-09T12:36:13.708Z,5380
2019-06-09T12:37:17.963Z,5240
2019-06-09T12:38:23.459Z,5356
2019-06-09T12:39:25.751Z,5260
2019-06-09T12:40:27.949Z,4256
2019-06-09T12:41:35.552Z,4416
2019-06-09T12:42:37.868Z,5236
2019-06-09T12:43:42.634Z,6628
2019-06-09T12:44:44.922Z,6460
2019-06-09T12:45:47.153Z,5440
2019-06-09T12:46:51.058Z,4792
2019-06-09T12:47:53.498Z,4748
2019-06-09T12:48:57.142Z,4748
2019-06-09T12:50:11.812Z,4748
2019-06-09T12:51:14.529Z,4728
2019-06-09T12:52:17.045Z,4716
2019-06-09T12:53:21.767Z,4744
2019-06-09T12:54:24.731Z,4912
2019-06-09T12:55:51.731Z,4780
2019-06-09T12:56:54.126Z,4764
2019-06-09T12:57:56.316Z,4752
2019-06-09T12:59:05.746Z,4728
2019-06-09T13:00:21.581Z,4704
2019-06-09T13:01:30.976Z,4712
2019-06-09T13:02:33.268Z,4720
2019-06-09T13:03:35.596Z,4708
2019-06-09T13:04:37.808Z,4628
2019-06-09T13:05:42.901Z,4660
2019-06-09T13:06:45.495Z,4656
2019-06-09T13:07:47.817Z,4548
2019-06-09T13:08:52.905Z,4620
2019-06-09T13:09:55.199Z,4628
2019-06-09T13:11:03.536Z,4636
2019-06-09T13:12:44.562Z,4632
2019-06-09T13:13:47.161Z,4664
2019-06-09T13:14:51.310Z,4700
2019-06-09T13:15:53.629Z,4720
2019-06-09T13:16:56.255Z,4760
2019-06-09T13:17:58.471Z,4792
2019-06-09T13:19:11.796Z,4844
2019-06-09T13:20:19.409Z,4904
2019-06-09T13:21:26.051Z,4964
2019-06-09T13:22:28.275Z,5052
2019-06-09T13:23:33.026Z,5076
2019-06-09T13:24:35.966Z,5072
2019-06-09T13:25:41.507Z,5160
2019-06-09T13:26:44.389Z,5180
2019-06-09T13:27:46.604Z,5212
2019-06-09T13:28:48.883Z,5200
2019-06-09T13:29:54.072Z,5188
2019-06-09T13:30:56.640Z,5224
2019-06-09T13:31:59.008Z,5272
2019-06-09T21:34:15.840Z,0
2019-06-09T21:35:18.014Z,0
2019-06-09T21:36:23.092Z,0
2019-06-09T21:37:25.283Z,0
2019-06-09T21:38:28.777Z,0
2019-06-09T21:39:34.428Z,0
2019-06-09T21:40:36.680Z,0
2019-06-09T21:41:41.118Z,0
2019-06-09T21:42:47.583Z,0
2019-06-09T21:43:57.120Z,0
2019-06-09T21:45:00.378Z,0
2019-06-09T21:46:02.613Z,0
2019-06-09T21:47:05.552Z,0
2019-06-09T21:48:15.721Z,0
2019-06-09T21:49:17.943Z,0
2019-06-09T21:50:20.166Z,0
2019-06-09T21:51:22.333Z,0
2019-06-09T21:52:28.023Z,0
2019-06-09T21:53:33.438Z,0
2019-06-09T21:54:35.545Z,0
2019-06-09T21:55:39.613Z,0
2019-06-09T21:56:51.307Z,0
2019-06-09T21:58:01.013Z,0
2019-06-09T21:59:03.261Z,0
2019-06-09T22:00:05.339Z,0
2019-06-09T22:01:07.539Z,0
2019-06-09T22:02:12.353Z,0
2019-06-09T22:03:18.522Z,0
2019-06-09T22:04:23.454Z,0
2019-06-09T22:05:25.615Z,0
2019-06-09T22:06:28.178Z,0
2019-06-09T22:07:33.510Z,0
2019-06-09T22:08:35.731Z,0
2019-06-09T22:09:38.200Z,0
2019-06-09T22:10:42.861Z,0
2019-06-09T22:11:46.058Z,0
2019-06-09T22:12:56.607Z,0
2019-06-09T22:13:59.985Z,0
2019-06-09T22:15:02.305Z,0
2019-06-09T22:16:04.744Z,0
2019-06-09T22:17:13.221Z,0
2019-06-09T22:18:22.952Z,0
2019-06-09T22:19:25.043Z,0
2019-06-09T22:20:27.232Z,0
2019-06-09T22:21:30.782Z,0
2019-06-09T22:22:32.985Z,0
2019-06-09T22:23:35.136Z,0
2019-06-09T22:24:37.209Z,0
2019-06-09T22:25:41.307Z,0
2019-06-09T22:26:43.674Z,0
2019-06-09T22:27:46.621Z,0
2019-06-09T22:28:51.698Z,0
2019-06-09T22:30:01.264Z,0
2019-06-09T22:31:03.517Z,0
2019-06-09T22:32:05.947Z,0
2019-06-09T22:33:14.454Z,0
2019-06-09T22:34:16.525Z,0
2019-06-09T22:35:18.615Z,0
2019-06-09T22:36:23.046Z,0
2019-06-09T22:37:25.146Z,0
2019-06-09T22:38:27.282Z,0
2019-06-09T22:39:31.225Z,0
2019-06-09T22:40:33.584Z,0
2019-06-09T22:41:35.686Z,0
2019-06-09T22:42:37.848Z,0
2019-06-09T22:43:40.928Z,0
2019-06-09T22:44:44.108Z,0
2019-06-09T22:45:48.291Z,0
2019-06-09T22:47:08.646Z,0
2019-06-09T22:49:05.745Z,0
2019-06-09T22:50:08.282Z,0
2019-06-09T22:51:12.968Z,0
2019-06-09T22:52:15.041Z,0
2019-06-09T22:53:17.204Z,0
2019-06-09T22:54:20.781Z,0
2019-06-09T22:55:22.994Z,0
2019-06-09T22:56:25.076Z,0
2019-06-09T22:57:27.168Z,0
2019-06-09T22:58:31.325Z,0
2019-06-09T22:59:33.879Z,0
2019-06-09T23:00:36.022Z,0
2019-06-09T23:01:38.215Z,0
2019-06-09T23:02:43.388Z,0
2019-06-09T23:03:45.779Z,0
2019-06-09T23:04:47.857Z,0
2019-06-09T23:05:56.885Z,0
2019-06-09T23:07:07.871Z,0
2019-06-09T23:08:13.023Z,0
2019-06-09T23:09:15.143Z,0
2019-06-09T23:10:17.271Z,0
2019-06-09T23:11:19.354Z,0
2019-06-09T23:12:21.435Z,0